sensor_id;sensor_type;location;lat;lon;timestamp;P1;durP1;ratioP1;P2;durP2;ratioP2
71106;SDS011;58763;47.982;11.516;2022-09-09T00:02:22;3.08;;;1.20;;
71106;SDS011;58763;47.982;11.516;2022-09-09T00:05:04;3.75;;;1.40;;
71106;SDS011;58763;47.982;11.516;2022-09-09T00:07:51;2.78;;;1.10;;
71106;SDS011;58763;47.982;11.516;2022-09-09T00:21:35;2.28;;;1.08;;
71106;SDS011;58763;47.982;11.516;2022-09-09T00:24:38;4.18;;;1.00;;
71106;SDS011;58763;47.982;11.516;2022-09-09T00:27:01;3.55;;;0.93;;
71106;SDS011;58763;47.982;11.516;2022-09-09T00:32:27;2.70;;;1.20;;
71106;SDS011;58763;47.982;11.516;2022-09-09T00:34:56;2.33;;;1.00;;
71106;SDS011;58763;47.982;11.516;2022-09-09T00:37:27;2.45;;;1.00;;
71106;SDS011;58763;47.982;11.516;2022-09-09T00:39:57;2.80;;;0.88;;
71106;SDS011;58763;47.982;11.516;2022-09-09T00:47:57;3.20;;;1.15;;
71106;SDS011;58763;47.982;11.516;2022-09-09T00:50:36;5.45;;;1.48;;
71106;SDS011;58763;47.982;11.516;2022-09-09T00:56:36;5.03;;;1.38;;
71106;SDS011;58763;47.982;11.516;2022-09-09T01:01:35;4.95;;;1.35;;
71106;SDS011;58763;47.982;11.516;2022-09-09T01:04:01;2.97;;;1.08;;
71106;SDS011;58763;47.982;11.516;2022-09-09T01:06:36;2.28;;;0.95;;
71106;SDS011;58763;47.982;11.516;2022-09-09T01:09:15;4.05;;;1.15;;
71106;SDS011;58763;47.982;11.516;2022-09-09T01:25:07;3.25;;;1.13;;
71106;SDS011;58763;47.982;11.516;2022-09-09T01:27:44;2.80;;;1.17;;
71106;SDS011;58763;47.982;11.516;2022-09-09T01:30:14;3.80;;;1.00;;
71106;SDS011;58763;47.982;11.516;2022-09-09T01:32:49;2.33;;;1.10;;
71106;SDS011;58763;47.982;11.516;2022-09-09T01:35:27;4.47;;;1.10;;
71106;SDS011;58763;47.982;11.516;2022-09-09T01:37:55;3.50;;;1.20;;
71106;SDS011;58763;47.982;11.516;2022-09-09T01:40:21;4.28;;;1.08;;
71106;SDS011;58763;47.982;11.516;2022-09-09T01:42:47;4.63;;;1.17;;
71106;SDS011;58763;47.982;11.516;2022-09-09T01:45:13;2.38;;;1.20;;
71106;SDS011;58763;47.982;11.516;2022-09-09T01:47:39;3.78;;;1.02;;
71106;SDS011;58763;47.982;11.516;2022-09-09T01:50:05;2.45;;;1.20;;
71106;SDS011;58763;47.982;11.516;2022-09-09T01:52:36;2.00;;;1.20;;
71106;SDS011;58763;47.982;11.516;2022-09-09T01:55:02;8.75;;;1.25;;
71106;SDS011;58763;47.982;11.516;2022-09-09T02:00:41;2.25;;;1.15;;
71106;SDS011;58763;47.982;11.516;2022-09-09T02:09:06;2.95;;;1.08;;
71106;SDS011;58763;47.982;11.516;2022-09-09T02:11:35;2.78;;;1.10;;
71106;SDS011;58763;47.982;11.516;2022-09-09T02:14:07;2.58;;;1.20;;
71106;SDS011;58763;47.982;11.516;2022-09-09T02:16:38;2.90;;;1.25;;
71106;SDS011;58763;47.982;11.516;2022-09-09T02:21:38;2.65;;;1.05;;
71106;SDS011;58763;47.982;11.516;2022-09-09T02:24:07;3.33;;;1.08;;
71106;SDS011;58763;47.982;11.516;2022-09-09T02:26:36;3.08;;;1.05;;
71106;SDS011;58763;47.982;11.516;2022-09-09T02:29:07;3.00;;;1.00;;
71106;SDS011;58763;47.982;11.516;2022-09-09T02:31:38;2.63;;;1.27;;
71106;SDS011;58763;47.982;11.516;2022-09-09T02:34:06;3.08;;;1.10;;
71106;SDS011;58763;47.982;11.516;2022-09-09T02:36:36;4.03;;;1.13;;
71106;SDS011;58763;47.982;11.516;2022-09-09T02:39:06;5.22;;;1.65;;
71106;SDS011;58763;47.982;11.516;2022-09-09T02:41:33;4.00;;;1.20;;
71106;SDS011;58763;47.982;11.516;2022-09-09T02:44:01;4.93;;;1.20;;
71106;SDS011;58763;47.982;11.516;2022-09-09T02:49:22;4.78;;;1.20;;
71106;SDS011;58763;47.982;11.516;2022-09-09T02:52:08;2.85;;;1.00;;
71106;SDS011;58763;47.982;11.516;2022-09-09T02:54:40;4.63;;;1.00;;
71106;SDS011;58763;47.982;11.516;2022-09-09T02:57:19;4.38;;;1.00;;
71106;SDS011;58763;47.982;11.516;2022-09-09T02:59:49;3.10;;;1.17;;
71106;SDS011;58763;47.982;11.516;2022-09-09T03:02:15;3.20;;;0.98;;
71106;SDS011;58763;47.982;11.516;2022-09-09T03:04:41;3.90;;;1.13;;
71106;SDS011;58763;47.982;11.516;2022-09-09T03:07:09;3.65;;;1.30;;
71106;SDS011;58763;47.982;11.516;2022-09-09T03:09:36;2.45;;;1.20;;
71106;SDS011;58763;47.982;11.516;2022-09-09T03:12:01;3.78;;;1.15;;
71106;SDS011;58763;47.982;11.516;2022-09-09T03:14:29;2.65;;;1.00;;
71106;SDS011;58763;47.982;11.516;2022-09-09T03:16:55;2.67;;;1.10;;
71106;SDS011;58763;47.982;11.516;2022-09-09T03:19:23;1.98;;;0.73;;
71106;SDS011;58763;47.982;11.516;2022-09-09T03:21:48;2.88;;;1.08;;
71106;SDS011;58763;47.982;11.516;2022-09-09T03:24:14;2.80;;;1.00;;
71106;SDS011;58763;47.982;11.516;2022-09-09T03:26:40;2.10;;;0.80;;
71106;SDS011;58763;47.982;11.516;2022-09-09T03:29:10;2.43;;;0.80;;
71106;SDS011;58763;47.982;11.516;2022-09-09T03:31:37;3.03;;;0.90;;
71106;SDS011;58763;47.982;11.516;2022-09-09T03:34:03;2.75;;;0.90;;
71106;SDS011;58763;47.982;11.516;2022-09-09T03:36:29;3.63;;;1.00;;
71106;SDS011;58763;47.982;11.516;2022-09-09T03:38:55;4.40;;;1.42;;
71106;SDS011;58763;47.982;11.516;2022-09-09T03:41:21;2.05;;;0.90;;
71106;SDS011;58763;47.982;11.516;2022-09-09T03:43:52;3.33;;;0.90;;
71106;SDS011;58763;47.982;11.516;2022-09-09T03:46:22;2.35;;;0.73;;
71106;SDS011;58763;47.982;11.516;2022-09-09T03:48:48;1.73;;;0.88;;
71106;SDS011;58763;47.982;11.516;2022-09-09T03:51:14;3.67;;;0.80;;
71106;SDS011;58763;47.982;11.516;2022-09-09T03:53:41;1.80;;;0.95;;
71106;SDS011;58763;47.982;11.516;2022-09-09T03:56:07;2.63;;;0.85;;
71106;SDS011;58763;47.982;11.516;2022-09-09T03:58:33;1.75;;;0.77;;
71106;SDS011;58763;47.982;11.516;2022-09-09T04:01:03;2.17;;;0.90;;
71106;SDS011;58763;47.982;11.516;2022-09-09T04:03:38;4.72;;;0.90;;
71106;SDS011;58763;47.982;11.516;2022-09-09T04:06:05;2.40;;;0.80;;
71106;SDS011;58763;47.982;11.516;2022-09-09T04:08:32;3.38;;;1.02;;
71106;SDS011;58763;47.982;11.516;2022-09-09T04:10:59;2.20;;;0.90;;
71106;SDS011;58763;47.982;11.516;2022-09-09T04:13:27;3.50;;;1.20;;
71106;SDS011;58763;47.982;11.516;2022-09-09T04:15:54;2.53;;;0.90;;
71106;SDS011;58763;47.982;11.516;2022-09-09T04:18:21;3.65;;;1.00;;
71106;SDS011;58763;47.982;11.516;2022-09-09T04:20:50;2.50;;;0.90;;
71106;SDS011;58763;47.982;11.516;2022-09-09T04:23:17;3.60;;;0.97;;
71106;SDS011;58763;47.982;11.516;2022-09-09T04:25:45;2.92;;;1.10;;
71106;SDS011;58763;47.982;11.516;2022-09-09T04:28:12;5.57;;;1.65;;
71106;SDS011;58763;47.982;11.516;2022-09-09T04:30:39;2.65;;;1.10;;
71106;SDS011;58763;47.982;11.516;2022-09-09T04:33:05;1.98;;;0.80;;
71106;SDS011;58763;47.982;11.516;2022-09-09T04:35:31;2.42;;;1.10;;
71106;SDS011;58763;47.982;11.516;2022-09-09T04:37:58;3.83;;;0.88;;
71106;SDS011;58763;47.982;11.516;2022-09-09T04:40:23;2.03;;;0.73;;
71106;SDS011;58763;47.982;11.516;2022-09-09T04:42:49;3.08;;;0.93;;
71106;SDS011;58763;47.982;11.516;2022-09-09T04:45:15;2.38;;;0.80;;
71106;SDS011;58763;47.982;11.516;2022-09-09T04:47:41;2.55;;;0.90;;
71106;SDS011;58763;47.982;11.516;2022-09-09T04:50:07;2.97;;;0.90;;
71106;SDS011;58763;47.982;11.516;2022-09-09T04:52:34;2.97;;;0.90;;
71106;SDS011;58763;47.982;11.516;2022-09-09T04:55:00;2.65;;;0.80;;
71106;SDS011;58763;47.982;11.516;2022-09-09T04:57:26;2.20;;;0.70;;
71106;SDS011;58763;47.982;11.516;2022-09-09T04:59:52;2.15;;;0.90;;
71106;SDS011;58763;47.982;11.516;2022-09-09T05:02:17;2.63;;;0.93;;
71106;SDS011;58763;47.982;11.516;2022-09-09T05:04:43;2.28;;;0.85;;
71106;SDS011;58763;47.982;11.516;2022-09-09T05:07:09;2.17;;;1.00;;
71106;SDS011;58763;47.982;11.516;2022-09-09T05:09:34;2.35;;;0.70;;
71106;SDS011;58763;47.982;11.516;2022-09-09T05:11:59;3.45;;;0.77;;
71106;SDS011;58763;47.982;11.516;2022-09-09T05:14:25;2.67;;;0.80;;
71106;SDS011;58763;47.982;11.516;2022-09-09T05:16:52;1.95;;;0.85;;
71106;SDS011;58763;47.982;11.516;2022-09-09T05:19:17;2.28;;;0.63;;
71106;SDS011;58763;47.982;11.516;2022-09-09T05:21:45;1.98;;;0.80;;
71106;SDS011;58763;47.982;11.516;2022-09-09T05:24:10;1.85;;;0.70;;
71106;SDS011;58763;47.982;11.516;2022-09-09T05:26:36;2.45;;;0.90;;
71106;SDS011;58763;47.982;11.516;2022-09-09T05:29:01;2.95;;;0.80;;
71106;SDS011;58763;47.982;11.516;2022-09-09T05:31:29;2.90;;;0.90;;
71106;SDS011;58763;47.982;11.516;2022-09-09T05:33:55;2.53;;;0.90;;
71106;SDS011;58763;47.982;11.516;2022-09-09T05:36:21;2.38;;;1.00;;
71106;SDS011;58763;47.982;11.516;2022-09-09T05:38:47;2.83;;;1.05;;
71106;SDS011;58763;47.982;11.516;2022-09-09T05:41:14;1.83;;;0.95;;
71106;SDS011;58763;47.982;11.516;2022-09-09T05:43:41;5.78;;;1.38;;
71106;SDS011;58763;47.982;11.516;2022-09-09T05:46:10;4.38;;;1.50;;
71106;SDS011;58763;47.982;11.516;2022-09-09T05:48:38;2.90;;;1.45;;
71106;SDS011;58763;47.982;11.516;2022-09-09T05:51:06;6.82;;;1.88;;
71106;SDS011;58763;47.982;11.516;2022-09-09T05:53:34;4.25;;;1.35;;
71106;SDS011;58763;47.982;11.516;2022-09-09T05:58:25;2.50;;;1.00;;
71106;SDS011;58763;47.982;11.516;2022-09-09T06:00:50;3.63;;;1.00;;
71106;SDS011;58763;47.982;11.516;2022-09-09T06:03:16;3.08;;;0.90;;
71106;SDS011;58763;47.982;11.516;2022-09-09T06:05:42;3.83;;;0.93;;
71106;SDS011;58763;47.982;11.516;2022-09-09T06:08:07;2.58;;;0.90;;
71106;SDS011;58763;47.982;11.516;2022-09-09T06:10:33;2.90;;;0.93;;
71106;SDS011;58763;47.982;11.516;2022-09-09T06:12:59;2.63;;;1.00;;
71106;SDS011;58763;47.982;11.516;2022-09-09T06:15:25;3.65;;;0.80;;
71106;SDS011;58763;47.982;11.516;2022-09-09T06:17:54;2.80;;;1.00;;
71106;SDS011;58763;47.982;11.516;2022-09-09T06:20:20;2.05;;;0.90;;
71106;SDS011;58763;47.982;11.516;2022-09-09T06:22:47;3.53;;;0.80;;
71106;SDS011;58763;47.982;11.516;2022-09-09T06:25:13;3.30;;;0.80;;
71106;SDS011;58763;47.982;11.516;2022-09-09T06:27:39;2.03;;;0.73;;
71106;SDS011;58763;47.982;11.516;2022-09-09T06:30:05;3.20;;;1.10;;
71106;SDS011;58763;47.982;11.516;2022-09-09T06:32:32;2.10;;;0.68;;
71106;SDS011;58763;47.982;11.516;2022-09-09T06:34:59;1.67;;;0.68;;
71106;SDS011;58763;47.982;11.516;2022-09-09T06:37:26;2.75;;;0.70;;
71106;SDS011;58763;47.982;11.516;2022-09-09T06:39:52;1.77;;;0.77;;
71106;SDS011;58763;47.982;11.516;2022-09-09T06:42:19;1.92;;;0.90;;
71106;SDS011;58763;47.982;11.516;2022-09-09T06:44:45;2.45;;;0.80;;
71106;SDS011;58763;47.982;11.516;2022-09-09T06:47:10;3.35;;;0.90;;
71106;SDS011;58763;47.982;11.516;2022-09-09T06:49:36;3.55;;;0.90;;
71106;SDS011;58763;47.982;11.516;2022-09-09T06:52:01;2.42;;;0.77;;
71106;SDS011;58763;47.982;11.516;2022-09-09T06:54:27;1.67;;;0.70;;
71106;SDS011;58763;47.982;11.516;2022-09-09T06:56:53;3.45;;;0.80;;
71106;SDS011;58763;47.982;11.516;2022-09-09T06:59:19;1.83;;;0.80;;
71106;SDS011;58763;47.982;11.516;2022-09-09T07:01:44;2.38;;;0.82;;
71106;SDS011;58763;47.982;11.516;2022-09-09T07:04:10;2.38;;;0.70;;
71106;SDS011;58763;47.982;11.516;2022-09-09T07:06:37;3.13;;;0.88;;
71106;SDS011;58763;47.982;11.516;2022-09-09T07:09:05;2.20;;;0.73;;
71106;SDS011;58763;47.982;11.516;2022-09-09T07:11:34;3.75;;;0.90;;
71106;SDS011;58763;47.982;11.516;2022-09-09T07:14:06;1.83;;;0.73;;
71106;SDS011;58763;47.982;11.516;2022-09-09T07:16:33;2.30;;;0.90;;
71106;SDS011;58763;47.982;11.516;2022-09-09T07:19:00;2.85;;;0.80;;
71106;SDS011;58763;47.982;11.516;2022-09-09T07:21:26;3.42;;;1.02;;
71106;SDS011;58763;47.982;11.516;2022-09-09T07:23:52;3.70;;;1.20;;
71106;SDS011;58763;47.982;11.516;2022-09-09T07:26:19;3.95;;;1.10;;
71106;SDS011;58763;47.982;11.516;2022-09-09T07:28:46;2.33;;;0.90;;
71106;SDS011;58763;47.982;11.516;2022-09-09T07:31:13;3.45;;;0.93;;
71106;SDS011;58763;47.982;11.516;2022-09-09T07:33:40;2.85;;;1.10;;
71106;SDS011;58763;47.982;11.516;2022-09-09T07:36:10;2.78;;;1.10;;
71106;SDS011;58763;47.982;11.516;2022-09-09T07:38:39;2.47;;;1.00;;
71106;SDS011;58763;47.982;11.516;2022-09-09T07:41:09;4.68;;;1.30;;
71106;SDS011;58763;47.982;11.516;2022-09-09T07:43:46;3.08;;;0.85;;
71106;SDS011;58763;47.982;11.516;2022-09-09T07:46:13;3.08;;;1.00;;
71106;SDS011;58763;47.982;11.516;2022-09-09T07:48:46;2.22;;;1.13;;
71106;SDS011;58763;47.982;11.516;2022-09-09T07:51:17;2.88;;;1.10;;
71106;SDS011;58763;47.982;11.516;2022-09-09T07:53:47;4.60;;;1.20;;
71106;SDS011;58763;47.982;11.516;2022-09-09T07:56:16;3.60;;;1.55;;
71106;SDS011;58763;47.982;11.516;2022-09-09T07:58:44;2.55;;;0.93;;
71106;SDS011;58763;47.982;11.516;2022-09-09T08:01:13;3.38;;;1.00;;
71106;SDS011;58763;47.982;11.516;2022-09-09T08:03:42;4.03;;;1.27;;
71106;SDS011;58763;47.982;11.516;2022-09-09T08:06:09;5.07;;;1.10;;
71106;SDS011;58763;47.982;11.516;2022-09-09T08:08:36;3.85;;;1.20;;
71106;SDS011;58763;47.982;11.516;2022-09-09T08:11:13;4.07;;;1.00;;
71106;SDS011;58763;47.982;11.516;2022-09-09T08:13:41;4.75;;;0.93;;
71106;SDS011;58763;47.982;11.516;2022-09-09T08:16:12;3.15;;;0.98;;
71106;SDS011;58763;47.982;11.516;2022-09-09T08:18:39;2.20;;;0.88;;
71106;SDS011;58763;47.982;11.516;2022-09-09T08:21:06;1.98;;;0.90;;
71106;SDS011;58763;47.982;11.516;2022-09-09T08:23:37;3.08;;;0.85;;
71106;SDS011;58763;47.982;11.516;2022-09-09T08:26:14;3.33;;;0.82;;
71106;SDS011;58763;47.982;11.516;2022-09-09T08:28:41;2.60;;;1.00;;
71106;SDS011;58763;47.982;11.516;2022-09-09T08:31:12;2.58;;;0.70;;
71106;SDS011;58763;47.982;11.516;2022-09-09T08:33:40;4.80;;;0.82;;
71106;SDS011;58763;47.982;11.516;2022-09-09T08:36:08;2.58;;;0.90;;
71106;SDS011;58763;47.982;11.516;2022-09-09T08:38:35;3.65;;;0.93;;
71106;SDS011;58763;47.982;11.516;2022-09-09T08:41:04;2.75;;;0.98;;
71106;SDS011;58763;47.982;11.516;2022-09-09T08:43:43;2.33;;;0.90;;
71106;SDS011;58763;47.982;11.516;2022-09-09T08:46:24;2.17;;;0.95;;
71106;SDS011;58763;47.982;11.516;2022-09-09T08:49:06;2.20;;;1.00;;
71106;SDS011;58763;47.982;11.516;2022-09-09T08:51:42;3.45;;;1.00;;
71106;SDS011;58763;47.982;11.516;2022-09-09T08:54:08;2.53;;;0.80;;
71106;SDS011;58763;47.982;11.516;2022-09-09T08:56:35;2.65;;;1.05;;
71106;SDS011;58763;47.982;11.516;2022-09-09T08:59:02;5.40;;;1.10;;
71106;SDS011;58763;47.982;11.516;2022-09-09T09:04:32;3.80;;;1.30;;
71106;SDS011;58763;47.982;11.516;2022-09-09T09:09:57;2.38;;;0.90;;
71106;SDS011;58763;47.982;11.516;2022-09-09T09:12:36;2.88;;;1.00;;
71106;SDS011;58763;47.982;11.516;2022-09-09T09:15:23;2.92;;;1.10;;
71106;SDS011;58763;47.982;11.516;2022-09-09T09:17:52;2.22;;;0.90;;
71106;SDS011;58763;47.982;11.516;2022-09-09T09:20:21;2.08;;;0.98;;
71106;SDS011;58763;47.982;11.516;2022-09-09T09:23:09;1.80;;;1.00;;
71106;SDS011;58763;47.982;11.516;2022-09-09T09:25:43;2.90;;;1.20;;
71106;SDS011;58763;47.982;11.516;2022-09-09T09:28:13;3.25;;;1.00;;
71106;SDS011;58763;47.982;11.516;2022-09-09T09:31:00;2.30;;;1.00;;
71106;SDS011;58763;47.982;11.516;2022-09-09T09:33:41;3.72;;;1.05;;
71106;SDS011;58763;47.982;11.516;2022-09-09T09:36:13;2.55;;;1.00;;
71106;SDS011;58763;47.982;11.516;2022-09-09T09:38:51;4.10;;;0.90;;
71106;SDS011;58763;47.982;11.516;2022-09-09T09:41:28;3.90;;;1.15;;
71106;SDS011;58763;47.982;11.516;2022-09-09T09:43:59;2.47;;;1.10;;
71106;SDS011;58763;47.982;11.516;2022-09-09T09:46:26;3.63;;;1.13;;
71106;SDS011;58763;47.982;11.516;2022-09-09T09:48:58;2.95;;;1.10;;
71106;SDS011;58763;47.982;11.516;2022-09-09T09:51:25;4.13;;;1.05;;
71106;SDS011;58763;47.982;11.516;2022-09-09T09:53:52;3.63;;;1.10;;
71106;SDS011;58763;47.982;11.516;2022-09-09T09:56:25;2.67;;;0.90;;
71106;SDS011;58763;47.982;11.516;2022-09-09T09:58:57;2.05;;;0.93;;
71106;SDS011;58763;47.982;11.516;2022-09-09T10:01:24;2.40;;;0.80;;
71106;SDS011;58763;47.982;11.516;2022-09-09T10:06:43;3.30;;;1.17;;
71106;SDS011;58763;47.982;11.516;2022-09-09T10:09:22;2.55;;;0.80;;
71106;SDS011;58763;47.982;11.516;2022-09-09T10:11:54;3.25;;;1.02;;
71106;SDS011;58763;47.982;11.516;2022-09-09T10:17:36;2.00;;;0.80;;
71106;SDS011;58763;47.982;11.516;2022-09-09T10:23:23;1.70;;;0.70;;
71106;SDS011;58763;47.982;11.516;2022-09-09T10:25:55;2.17;;;0.80;;
71106;SDS011;58763;47.982;11.516;2022-09-09T10:28:33;1.75;;;0.68;;
71106;SDS011;58763;47.982;11.516;2022-09-09T10:34:31;3.55;;;0.60;;
71106;SDS011;58763;47.982;11.516;2022-09-09T10:37:00;3.47;;;0.70;;
71106;SDS011;58763;47.982;11.516;2022-09-09T10:39:47;3.67;;;0.65;;
71106;SDS011;58763;47.982;11.516;2022-09-09T10:42:16;1.52;;;0.70;;
71106;SDS011;58763;47.982;11.516;2022-09-09T10:44:56;5.30;;;0.50;;
71106;SDS011;58763;47.982;11.516;2022-09-09T10:47:40;1.40;;;0.50;;
71106;SDS011;58763;47.982;11.516;2022-09-09T10:50:44;2.58;;;0.40;;
71106;SDS011;58763;47.982;11.516;2022-09-09T10:53:35;1.42;;;0.55;;
71106;SDS011;58763;47.982;11.516;2022-09-09T10:56:06;1.63;;;0.50;;
71106;SDS011;58763;47.982;11.516;2022-09-09T10:58:38;4.40;;;0.60;;
71106;SDS011;58763;47.982;11.516;2022-09-09T11:01:31;1.58;;;0.60;;
71106;SDS011;58763;47.982;11.516;2022-09-09T11:04:01;1.55;;;0.57;;
71106;SDS011;58763;47.982;11.516;2022-09-09T11:06:37;2.50;;;0.50;;
71106;SDS011;58763;47.982;11.516;2022-09-09T11:09:08;1.73;;;0.45;;
71106;SDS011;58763;47.982;11.516;2022-09-09T11:11:42;1.30;;;0.50;;
71106;SDS011;58763;47.982;11.516;2022-09-09T11:14:15;1.00;;;0.35;;
71106;SDS011;58763;47.982;11.516;2022-09-09T11:22:15;2.92;;;0.50;;
71106;SDS011;58763;47.982;11.516;2022-09-09T11:36:13;1.38;;;0.40;;
71106;SDS011;58763;47.982;11.516;2022-09-09T11:39:07;0.77;;;0.38;;
71106;SDS011;58763;47.982;11.516;2022-09-09T11:41:37;0.90;;;0.40;;
71106;SDS011;58763;47.982;11.516;2022-09-09T11:44:17;4.97;;;0.50;;
71106;SDS011;58763;47.982;11.516;2022-09-09T11:46:49;1.40;;;0.50;;
71106;SDS011;58763;47.982;11.516;2022-09-09T11:49:30;2.58;;;0.50;;
71106;SDS011;58763;47.982;11.516;2022-09-09T11:52:49;1.40;;;0.40;;
71106;SDS011;58763;47.982;11.516;2022-09-09T11:55:11;1.52;;;0.40;;
71106;SDS011;58763;47.982;11.516;2022-09-09T11:58:05;1.88;;;0.70;;
71106;SDS011;58763;47.982;11.516;2022-09-09T12:06:17;1.67;;;0.50;;
71106;SDS011;58763;47.982;11.516;2022-09-09T12:08:51;1.60;;;0.88;;
71106;SDS011;58763;47.982;11.516;2022-09-09T12:11:24;1.60;;;0.35;;
71106;SDS011;58763;47.982;11.516;2022-09-09T12:13:52;1.45;;;0.30;;
71106;SDS011;58763;47.982;11.516;2022-09-09T12:16:35;1.23;;;0.43;;
71106;SDS011;58763;47.982;11.516;2022-09-09T12:19:21;1.55;;;0.50;;
71106;SDS011;58763;47.982;11.516;2022-09-09T12:24:19;1.08;;;0.45;;
71106;SDS011;58763;47.982;11.516;2022-09-09T12:26:53;1.02;;;0.40;;
71106;SDS011;58763;47.982;11.516;2022-09-09T12:29:29;1.92;;;0.50;;
71106;SDS011;58763;47.982;11.516;2022-09-09T12:32:13;1.15;;;0.30;;
71106;SDS011;58763;47.982;11.516;2022-09-09T12:34:44;2.70;;;0.60;;
71106;SDS011;58763;47.982;11.516;2022-09-09T12:40:00;2.35;;;0.50;;
71106;SDS011;58763;47.982;11.516;2022-09-09T12:42:28;3.03;;;0.50;;
71106;SDS011;58763;47.982;11.516;2022-09-09T12:44:55;1.70;;;0.52;;
71106;SDS011;58763;47.982;11.516;2022-09-09T12:47:37;1.20;;;0.50;;
71106;SDS011;58763;47.982;11.516;2022-09-09T12:50:15;1.52;;;0.50;;
71106;SDS011;58763;47.982;11.516;2022-09-09T12:52:43;1.90;;;0.60;;
71106;SDS011;58763;47.982;11.516;2022-09-09T12:55:20;1.58;;;0.52;;
71106;SDS011;58763;47.982;11.516;2022-09-09T12:57:50;1.20;;;0.40;;
71106;SDS011;58763;47.982;11.516;2022-09-09T13:00:23;2.70;;;0.50;;
71106;SDS011;58763;47.982;11.516;2022-09-09T13:02:53;1.42;;;0.45;;
71106;SDS011;58763;47.982;11.516;2022-09-09T13:05:24;2.83;;;0.55;;
71106;SDS011;58763;47.982;11.516;2022-09-09T13:07:51;0.90;;;0.40;;
71106;SDS011;58763;47.982;11.516;2022-09-09T13:10:26;1.63;;;0.57;;
71106;SDS011;58763;47.982;11.516;2022-09-09T13:12:55;1.58;;;0.60;;
71106;SDS011;58763;47.982;11.516;2022-09-09T13:15:23;1.48;;;0.30;;
71106;SDS011;58763;47.982;11.516;2022-09-09T13:17:56;1.15;;;0.40;;
71106;SDS011;58763;47.982;11.516;2022-09-09T13:20:23;2.00;;;0.40;;
71106;SDS011;58763;47.982;11.516;2022-09-09T13:22:50;2.40;;;0.60;;
71106;SDS011;58763;47.982;11.516;2022-09-09T13:25:22;3.40;;;0.50;;
71106;SDS011;58763;47.982;11.516;2022-09-09T13:30:28;2.20;;;0.50;;
71106;SDS011;58763;47.982;11.516;2022-09-09T13:35:34;2.05;;;0.60;;
71106;SDS011;58763;47.982;11.516;2022-09-09T13:38:13;1.27;;;0.40;;
71106;SDS011;58763;47.982;11.516;2022-09-09T13:40:40;1.48;;;0.43;;
71106;SDS011;58763;47.982;11.516;2022-09-09T13:43:21;2.42;;;0.40;;
71106;SDS011;58763;47.982;11.516;2022-09-09T13:45:55;1.70;;;0.57;;
71106;SDS011;58763;47.982;11.516;2022-09-09T13:48:23;1.67;;;0.40;;
71106;SDS011;58763;47.982;11.516;2022-09-09T13:50:55;5.28;;;0.85;;
71106;SDS011;58763;47.982;11.516;2022-09-09T13:53:22;1.65;;;0.50;;
71106;SDS011;58763;47.982;11.516;2022-09-09T13:55:48;2.13;;;0.50;;
71106;SDS011;58763;47.982;11.516;2022-09-09T13:58:15;2.08;;;0.50;;
71106;SDS011;58763;47.982;11.516;2022-09-09T14:00:43;1.52;;;0.60;;
71106;SDS011;58763;47.982;11.516;2022-09-09T14:03:10;1.27;;;0.57;;
71106;SDS011;58763;47.982;11.516;2022-09-09T14:05:36;2.22;;;0.60;;
71106;SDS011;58763;47.982;11.516;2022-09-09T14:08:04;2.83;;;0.50;;
71106;SDS011;58763;47.982;11.516;2022-09-09T14:10:31;2.08;;;0.60;;
71106;SDS011;58763;47.982;11.516;2022-09-09T14:12:57;0.90;;;0.50;;
71106;SDS011;58763;47.982;11.516;2022-09-09T14:15:23;1.20;;;0.40;;
71106;SDS011;58763;47.982;11.516;2022-09-09T14:17:48;2.50;;;0.80;;
71106;SDS011;58763;47.982;11.516;2022-09-09T14:20:14;1.75;;;0.60;;
71106;SDS011;58763;47.982;11.516;2022-09-09T14:22:40;2.28;;;0.60;;
71106;SDS011;58763;47.982;11.516;2022-09-09T14:25:06;2.08;;;0.60;;
71106;SDS011;58763;47.982;11.516;2022-09-09T14:27:33;1.30;;;0.40;;
71106;SDS011;58763;47.982;11.516;2022-09-09T14:29:58;1.65;;;0.43;;
71106;SDS011;58763;47.982;11.516;2022-09-09T14:32:26;2.25;;;0.60;;
71106;SDS011;58763;47.982;11.516;2022-09-09T14:34:51;1.23;;;0.50;;
71106;SDS011;58763;47.982;11.516;2022-09-09T14:37:17;4.20;;;0.80;;
71106;SDS011;58763;47.982;11.516;2022-09-09T14:39:43;2.38;;;0.70;;
71106;SDS011;58763;47.982;11.516;2022-09-09T14:42:13;1.73;;;0.70;;
71106;SDS011;58763;47.982;11.516;2022-09-09T14:44:39;2.08;;;0.60;;
71106;SDS011;58763;47.982;11.516;2022-09-09T14:47:06;2.47;;;0.57;;
71106;SDS011;58763;47.982;11.516;2022-09-09T14:49:33;2.97;;;0.60;;
71106;SDS011;58763;47.982;11.516;2022-09-09T14:51:59;2.33;;;0.80;;
71106;SDS011;58763;47.982;11.516;2022-09-09T14:54:24;2.35;;;0.60;;
71106;SDS011;58763;47.982;11.516;2022-09-09T14:56:50;1.92;;;0.60;;
71106;SDS011;58763;47.982;11.516;2022-09-09T14:59:15;2.25;;;0.57;;
71106;SDS011;58763;47.982;11.516;2022-09-09T15:01:41;2.10;;;0.55;;
71106;SDS011;58763;47.982;11.516;2022-09-09T15:04:06;2.28;;;0.60;;
71106;SDS011;58763;47.982;11.516;2022-09-09T15:06:34;2.40;;;0.60;;
71106;SDS011;58763;47.982;11.516;2022-09-09T15:09:02;3.25;;;0.70;;
71106;SDS011;58763;47.982;11.516;2022-09-09T15:11:29;1.25;;;0.47;;
71106;SDS011;58763;47.982;11.516;2022-09-09T15:13:59;2.10;;;0.50;;
71106;SDS011;58763;47.982;11.516;2022-09-09T15:16:26;2.22;;;0.73;;
71106;SDS011;58763;47.982;11.516;2022-09-09T15:18:54;2.65;;;0.70;;
71106;SDS011;58763;47.982;11.516;2022-09-09T15:21:22;1.73;;;0.55;;
71106;SDS011;58763;47.982;11.516;2022-09-09T15:23:49;1.60;;;0.50;;
71106;SDS011;58763;47.982;11.516;2022-09-09T15:26:16;1.73;;;0.50;;
71106;SDS011;58763;47.982;11.516;2022-09-09T15:28:43;1.60;;;0.50;;
71106;SDS011;58763;47.982;11.516;2022-09-09T15:31:10;2.70;;;0.60;;
71106;SDS011;58763;47.982;11.516;2022-09-09T15:33:39;2.35;;;0.60;;
71106;SDS011;58763;47.982;11.516;2022-09-09T15:38:48;2.08;;;0.60;;
71106;SDS011;58763;47.982;11.516;2022-09-09T15:41:14;2.63;;;0.50;;
71106;SDS011;58763;47.982;11.516;2022-09-09T15:43:47;2.83;;;0.60;;
71106;SDS011;58763;47.982;11.516;2022-09-09T15:51:41;1.80;;;0.47;;
71106;SDS011;58763;47.982;11.516;2022-09-09T15:54:07;1.33;;;0.40;;
71106;SDS011;58763;47.982;11.516;2022-09-09T15:56:35;4.30;;;0.60;;
71106;SDS011;58763;47.982;11.516;2022-09-09T15:59:00;2.10;;;0.60;;
71106;SDS011;58763;47.982;11.516;2022-09-09T16:01:30;1.88;;;0.63;;
71106;SDS011;58763;47.982;11.516;2022-09-09T16:03:57;2.80;;;0.65;;
71106;SDS011;58763;47.982;11.516;2022-09-09T16:06:25;2.25;;;0.70;;
71106;SDS011;58763;47.982;11.516;2022-09-09T16:08:53;2.03;;;0.60;;
71106;SDS011;58763;47.982;11.516;2022-09-09T16:11:21;5.50;;;0.60;;
71106;SDS011;58763;47.982;11.516;2022-09-09T16:13:48;2.72;;;0.60;;
71106;SDS011;58763;47.982;11.516;2022-09-09T16:16:16;4.03;;;0.70;;
71106;SDS011;58763;47.982;11.516;2022-09-09T16:18:44;4.57;;;0.82;;
71106;SDS011;58763;47.982;11.516;2022-09-09T16:21:13;3.75;;;0.68;;
71106;SDS011;58763;47.982;11.516;2022-09-09T16:23:40;1.00;;;0.43;;
71106;SDS011;58763;47.982;11.516;2022-09-09T16:26:08;2.88;;;0.60;;
71106;SDS011;58763;47.982;11.516;2022-09-09T16:28:36;3.35;;;0.60;;
71106;SDS011;58763;47.982;11.516;2022-09-09T16:31:05;3.38;;;0.60;;
71106;SDS011;58763;47.982;11.516;2022-09-09T16:33:32;2.13;;;0.57;;
71106;SDS011;58763;47.982;11.516;2022-09-09T16:35:58;2.05;;;0.65;;
71106;SDS011;58763;47.982;11.516;2022-09-09T16:38:23;2.05;;;0.60;;
71106;SDS011;58763;47.982;11.516;2022-09-09T16:40:49;1.80;;;0.50;;
71106;SDS011;58763;47.982;11.516;2022-09-09T16:43:15;2.25;;;0.57;;
71106;SDS011;58763;47.982;11.516;2022-09-09T16:45:41;3.53;;;0.90;;